Weather History for KADC - October, 2011

Change the Weather History Date:

Tuesday, October 4, 2011

  Actual Average Record
Temperature  
Mean Temperature 65 °F -  
Max Temperature 80 °F 60 °F 80 °F (2011)
Min Temperature 50 °F 36 °F 16 °F (1935)
Growing Degree Days 15 (Base 50)    
Moisture  
Dew Point 42 °F    
Average Humidity 46    
Maximum Humidity 66    
Minimum Humidity 30    
Precipitation  
Precipitation 0.00 in - - ()
Sea Level Pressure  
Sea Level Pressure 30.07 in    
Wind  
Wind Speed 7 mph (SE)    
Max Wind Speed 17 mph    
Max Gust Speed 23 mph    
Visibility 10 miles    
Events      
Averages and records for this station are not official NWS values.
T = Trace of Precipitation, MM = Missing Value Source: NWS Daily Summary

Daily Weather History Graph

Daily Weather History Graph

Search for Another Location

Airport or City:

Trip Planner

Search our weather history database for the weather conditions in past years. The results will help you decide how hot, cold, wet, or windy it might be!

Date:

Astronomy

Oct. 04, 2011 Rise Set
Actual Time 7:23 AM CDT 6:55 PM CDT
Civil Twilight 6:53 AM CDT 7:25 PM CDT
Nautical Twilight 6:18 AM CDT 8:00 PM CDT
Astronomical Twilight 5:42 AM CDT 8:35 PM CDT
Moon 3:19 PM CDT (10/4) No Moon Set
Length of Visible Light 12h 32m
Length of Day
11h 32m
First Quarter, 56% of the Moon is Illuminated
Oct 4
First Quarter
Oct 11
Full
Oct 19
Last Quarter
Oct 26
New
Nov 2
First Quarter

Hourly Weather History & Observations

Time (CDT) Temp. Dew Point Humidity Pressure Visibility Wind Dir Wind Speed Gust Speed Precip Events Conditions
12:14 AM 53.6 °F 39.2 °F 58% 30.11 in 10.0 mi ESE 5.8 mph - N/A   Clear
12:35 AM 53.6 °F 37.4 °F 54% 30.11 in 10.0 mi East 3.5 mph - N/A   Clear
12:53 AM 50.0 °F 39.2 °F 66% 30.11 in 10.0 mi ESE 4.6 mph - N/A   Clear
1:15 AM 51.8 °F 39.2 °F 62% 30.10 in 10.0 mi SE 5.8 mph - N/A   Clear
1:35 AM 53.6 °F 39.2 °F 58% 30.10 in 10.0 mi SE 4.6 mph - N/A   Clear
1:53 AM 53.6 °F 39.2 °F 58% 30.10 in 10.0 mi SE 4.6 mph - N/A   Clear
2:14 AM 53.6 °F 37.4 °F 54% 30.10 in 10.0 mi Calm Calm - N/A   Clear
2:35 AM 55.4 °F 37.4 °F 51% 30.11 in 10.0 mi South 4.6 mph - N/A   Clear
2:53 AM 55.4 °F 37.4 °F 51% 30.11 in 10.0 mi South 4.6 mph - N/A   Clear
3:14 AM 55.4 °F 37.4 °F 51% 30.10 in 10.0 mi South 6.9 mph - N/A   Clear
3:35 AM 55.4 °F 37.4 °F 51% 30.10 in 10.0 mi South 4.6 mph - N/A   Clear
3:52 AM 55.4 °F 39.2 °F 54% 30.11 in 10.0 mi SSW 4.6 mph - N/A   Clear
4:15 AM 55.4 °F 39.2 °F 54% 30.10 in 10.0 mi South 11.5 mph - N/A   Clear
4:35 AM 55.4 °F 37.4 °F 51% 30.09 in 10.0 mi SSE 9.2 mph - N/A   Clear
4:52 AM 55.4 °F 39.2 °F 54% 30.09 in 10.0 mi SSE 8.1 mph - N/A   Clear
5:15 AM 55.4 °F 37.4 °F 51% 30.10 in 10.0 mi SSE 3.5 mph - N/A   Clear
5:35 AM 53.6 °F 37.4 °F 54% 30.10 in 10.0 mi Calm Calm - N/A   Clear
6:14 AM 51.8 °F 39.2 °F 62% 30.10 in 10.0 mi ESE 4.6 mph - N/A   Clear
6:35 AM 51.8 °F 39.2 °F 62% 30.10 in 10.0 mi ESE 4.6 mph - N/A   Clear
6:53 AM 51.8 °F 39.2 °F 62% 30.10 in 10.0 mi ESE 3.5 mph - N/A   Clear
7:14 AM 51.8 °F 39.2 °F 62% 30.10 in 10.0 mi ESE 3.5 mph - N/A   Clear
7:35 AM 50.0 °F 39.2 °F 66% 30.10 in 10.0 mi ESE 4.6 mph - N/A   Clear
7:53 AM 51.8 °F 39.2 °F 62% 30.11 in 10.0 mi ESE 3.5 mph - N/A   Clear
8:14 AM 51.8 °F 39.2 °F 62% 30.11 in 10.0 mi ESE 4.6 mph - N/A   Clear
8:35 AM 51.8 °F 39.2 °F 62% 30.10 in 10.0 mi ESE 5.8 mph - N/A   Clear
9:14 AM 55.4 °F 39.2 °F 54% 30.10 in 10.0 mi SSE 5.8 mph - N/A   Clear
9:35 AM 59.0 °F 39.2 °F 48% 30.10 in 10.0 mi SSE 8.1 mph - N/A   Clear
9:53 AM 60.8 °F 41.0 °F 48% 30.10 in 10.0 mi SSE 9.2 mph - N/A   Clear
10:14 AM 62.6 °F 41.0 °F 45% 30.10 in 10.0 mi SSE 6.9 mph - N/A   Clear
10:35 AM 62.6 °F 42.8 °F 48% 30.09 in 10.0 mi SSE 11.5 mph - N/A   Clear
10:53 AM 66.2 °F 42.8 °F 43% 30.09 in 10.0 mi SSE 10.4 mph - N/A   Clear
11:15 AM 69.8 °F 42.8 °F 38% 30.09 in 10.0 mi South 10.4 mph - N/A   Clear
11:34 AM 69.8 °F 42.8 °F 38% 30.09 in 10.0 mi SSE 10.4 mph - N/A   Clear
11:53 AM 71.6 °F 44.6 °F 38% 30.08 in 10.0 mi SSE 10.4 mph - N/A   Clear
12:15 PM 73.4 °F 44.6 °F 36% 30.07 in 10.0 mi SSE 10.4 mph - N/A   Clear
12:34 PM 75.2 °F 44.6 °F 34% 30.07 in 10.0 mi SE 12.7 mph - N/A   Clear
12:53 PM 77.0 °F 44.6 °F 32% 30.06 in 10.0 mi SSE 11.5 mph 16.1 mph N/A   Clear
1:15 PM 77.0 °F 44.6 °F 32% 30.05 in 10.0 mi SSE 16.1 mph 19.6 mph N/A   Clear
1:34 PM 78.8 °F 44.6 °F 30% 30.04 in 10.0 mi SSE 13.8 mph 19.6 mph N/A   Clear
1:53 PM 78.8 °F 44.6 °F 30% 30.03 in 10.0 mi SSE 17.3 mph - N/A   Clear
2:15 PM 78.8 °F 46.4 °F 32% 30.02 in 10.0 mi SE 13.8 mph 19.6 mph N/A   Clear
2:34 PM 78.8 °F 46.4 °F 32% 30.01 in 10.0 mi SE 12.7 mph - N/A   Clear
2:53 PM 78.8 °F 46.4 °F 32% 30.01 in 10.0 mi SE 13.8 mph - N/A   Clear
3:15 PM 80.6 °F 46.4 °F 30% 30.00 in 10.0 mi SE 17.3 mph 20.7 mph N/A   Clear
3:34 PM 80.6 °F 46.4 °F 30% 30.00 in 10.0 mi SSE 17.3 mph 20.7 mph N/A   Clear
3:53 PM 78.8 °F 44.6 °F 30% 29.99 in 10.0 mi SSE 17.3 mph 23.0 mph N/A   Clear
4:15 PM 78.8 °F 46.4 °F 32% 29.99 in 10.0 mi SSE 13.8 mph 20.7 mph N/A   Clear
4:34 PM 77.0 °F 46.4 °F 34% 29.99 in 10.0 mi SSE 17.3 mph - N/A   Clear
5:15 PM 77.0 °F 46.4 °F 34% 29.99 in 10.0 mi SSE 15.0 mph 21.9 mph N/A   Clear
5:34 PM 75.2 °F 44.6 °F 34% 29.99 in 10.0 mi SE 12.7 mph - N/A   Clear
5:53 PM 75.2 °F 44.6 °F 34% 29.99 in 10.0 mi SE 12.7 mph 18.4 mph N/A   Clear
6:15 PM 73.4 °F 44.6 °F 36% 29.99 in 7.0 mi ESE 10.4 mph - N/A   Clear
6:35 PM 71.6 °F 44.6 °F 38% 29.98 in 7.0 mi SE 9.2 mph - N/A   Clear
6:53 PM 69.8 °F 44.6 °F 40% 29.99 in 10.0 mi ESE 6.9 mph - N/A   Clear
7:14 PM 66.2 °F 44.6 °F 46% 29.99 in 10.0 mi ESE 5.8 mph - N/A   Clear
7:35 PM 66.2 °F 44.6 °F 46% 29.99 in 10.0 mi East 8.1 mph - N/A   Clear
7:52 PM 66.2 °F 44.6 °F 46% 29.99 in 10.0 mi ESE 8.1 mph - N/A   Clear
8:15 PM 66.2 °F 44.6 °F 46% 29.98 in 10.0 mi East 8.1 mph - N/A   Clear
8:35 PM 64.4 °F 44.6 °F 49% 29.98 in 10.0 mi ESE 9.2 mph - N/A   Clear
9:15 PM 62.6 °F 44.6 °F 52% 29.98 in 10.0 mi ESE 6.9 mph - N/A   Clear
9:34 PM 62.6 °F 44.6 °F 52% 29.98 in 10.0 mi ESE 9.2 mph - N/A   Clear
9:53 PM 62.6 °F 44.6 °F 52% 29.98 in 10.0 mi SE 8.1 mph - N/A   Clear
10:14 PM 62.6 °F 44.6 °F 52% 29.98 in 10.0 mi SE 8.1 mph - N/A   Clear
10:35 PM 64.4 °F 44.6 °F 49% 29.98 in 10.0 mi SE 9.2 mph 16.1 mph N/A   Clear
10:53 PM 64.4 °F 44.6 °F 49% 29.98 in 10.0 mi SE 6.9 mph - N/A   Clear
11:15 PM 62.6 °F 44.6 °F 52% 29.98 in 10.0 mi SE 4.6 mph - N/A   Clear
11:34 PM 60.8 °F 44.6 °F 55% 29.98 in 10.0 mi SE 4.6 mph - N/A   Clear
11:53 PM 59.0 °F 42.8 °F 55% 29.98 in 10.0 mi ESE 4.6 mph - N/A   Clear